Time;durP1;ratioP1;P1;durP2;ratioP2;P2;SDS_P1;SDS_P2;PMS_P1;PMS_P2;Temp;Humidity;BMP_temperature;BMP_pressure;BME280_temperature;BME280_humidity;BME280_pressure;Samples;Min_cycle;Max_cycle;Signal;HPM_P1;HPM_P2
2022/01/01 00:00:14;;;;;;;251.87;226.27;;;11.40;99.90;;;;;;5004115;28;20527;-81
2022/01/01 00:02:40;;;;;;;238.90;217.27;;;11.40;99.90;;;;;;5006792;28;20289;-81
2022/01/01 00:05:07;;;;;;;236.87;214.17;;;11.40;99.90;;;;;;4988040;28;20231;-81
2022/01/01 00:07:34;;;;;;;227.87;206.73;;;11.40;99.90;;;;;;5005348;28;20242;-81
2022/01/01 00:10:00;;;;;;;225.87;204.30;;;11.50;99.90;;;;;;5004071;28;20282;-81
2022/01/01 00:12:26;;;;;;;216.67;197.73;;;11.50;99.90;;;;;;4988694;28;20298;-80
2022/01/01 00:14:51;;;;;;;217.80;198.17;;;11.50;99.90;;;;;;5007564;28;20196;-81
2022/01/01 00:17:17;;;;;;;210.20;191.13;;;11.50;99.90;;;;;;4986445;28;20219;-80
2022/01/01 00:19:43;;;;;;;223.23;202.47;;;11.50;99.90;;;;;;4986998;28;20199;-81
2022/01/01 00:22:08;;;;;;;223.37;202.80;;;11.50;99.90;;;;;;4989873;28;20226;-81
2022/01/01 00:24:34;;;;;;;216.53;196.87;;;11.60;99.90;;;;;;5005899;28;20630;-81
2022/01/01 00:27:00;;;;;;;215.83;196.53;;;11.60;99.90;;;;;;4985615;28;20222;-82
2022/01/01 00:29:27;;;;;;;211.90;193.63;;;11.60;99.90;;;;;;5005972;28;20196;-80
2022/01/01 00:31:53;;;;;;;210.10;191.53;;;11.60;99.90;;;;;;4986452;28;20219;-81
2022/01/01 00:34:18;;;;;;;209.07;190.77;;;11.60;99.90;;;;;;5003972;28;20192;-80
2022/01/01 00:36:44;;;;;;;207.40;188.93;;;11.60;99.90;;;;;;4988184;28;20196;-80
2022/01/01 00:39:10;;;;;;;211.90;191.53;;;11.70;99.90;;;;;;4988373;28;20201;-79
2022/01/01 00:41:35;;;;;;;210.83;192.27;;;11.70;99.90;;;;;;4986452;28;20218;-80
2022/01/01 00:44:01;;;;;;;218.00;197.60;;;11.70;99.90;;;;;;4985505;28;20199;-81
2022/01/01 00:46:27;;;;;;;220.60;200.63;;;11.80;99.90;;;;;;4993893;28;20700;-80
2022/01/01 00:48:53;;;;;;;214.33;193.33;;;11.70;99.90;;;;;;4987618;28;20199;-81
2022/01/01 00:51:23;;;;;;;203.77;185.90;;;11.70;99.90;;;;;;5003291;28;21007;-81
2022/01/01 00:53:49;;;;;;;205.70;185.63;;;11.80;99.90;;;;;;5003394;28;20196;-79
2022/01/01 00:56:15;;;;;;;215.47;195.47;;;11.80;99.90;;;;;;5002545;28;20235;-80
2022/01/01 00:58:41;;;;;;;213.37;194.67;;;11.80;99.90;;;;;;5002235;28;20299;-80
2022/01/01 01:01:07;;;;;;;199.50;182.00;;;11.80;99.90;;;;;;4991255;28;20201;-80
2022/01/01 01:03:33;;;;;;;196.43;179.33;;;11.90;99.90;;;;;;4986347;28;20287;-79
2022/01/01 01:05:59;;;;;;;193.67;176.60;;;11.90;99.90;;;;;;5006112;28;20664;-82
2022/01/01 01:08:26;;;;;;;194.33;177.13;;;11.90;99.90;;;;;;4990595;28;20357;-81
2022/01/01 01:10:52;;;;;;;187.97;172.10;;;11.90;99.90;;;;;;5022519;28;20251;-79
2022/01/01 01:13:20;;;;;;;187.90;172.63;;;11.90;99.90;;;;;;4989494;28;20201;-80
2022/01/01 01:15:45;;;;;;;185.57;169.83;;;12.00;99.90;;;;;;4988650;28;20290;-79
2022/01/01 01:18:12;;;;;;;179.37;165.00;;;12.00;99.90;;;;;;5021901;28;20251;-81
2022/01/01 01:20:38;;;;;;;181.27;167.03;;;12.10;99.90;;;;;;4989318;28;20188;-80
2022/01/01 01:23:04;;;;;;;175.57;162.23;;;12.10;99.90;;;;;;4989505;28;20669;-80
2022/01/01 01:25:32;;;;;;;177.50;162.90;;;12.10;99.90;;;;;;5022642;28;20696;-81
2022/01/01 01:28:07;;;;;;;173.30;158.90;;;12.20;99.90;;;;;;4976151;28;20240;-80
2022/01/01 01:30:33;;;;;;;176.00;161.27;;;12.20;99.90;;;;;;4989948;28;20267;-81
2022/01/01 01:32:59;;;;;;;171.97;158.67;;;12.20;99.90;;;;;;5021176;28;20844;-80
2022/01/01 01:35:25;;;;;;;169.27;155.70;;;12.20;99.90;;;;;;5006294;28;20188;-80
2022/01/01 01:37:50;;;;;;;169.67;156.00;;;12.20;99.90;;;;;;5023789;28;20564;-81
2022/01/01 01:40:16;;;;;;;167.83;154.60;;;12.20;99.90;;;;;;4989422;28;20325;-81
2022/01/01 01:42:44;;;;;;;171.00;157.63;;;12.30;99.90;;;;;;4973909;28;20212;-80
2022/01/01 01:45:15;;;;;;;168.63;155.73;;;12.30;99.90;;;;;;4974563;28;20666;-81
2022/01/01 01:47:42;;;;;;;171.23;156.53;;;12.30;99.90;;;;;;4988016;28;20263;-80
2022/01/01 01:50:11;;;;;;;171.13;156.93;;;12.30;99.90;;;;;;4988113;28;20275;-81
2022/01/01 01:52:40;;;;;;;173.47;159.73;;;12.40;99.90;;;;;;5021141;28;20182;-81
2022/01/01 01:55:09;;;;;;;174.13;160.57;;;12.30;99.90;;;;;;4988039;28;20201;-80
2022/01/01 01:57:36;;;;;;;178.17;163.83;;;12.40;99.90;;;;;;5019413;28;20275;-80
2022/01/01 02:00:05;;;;;;;171.10;157.83;;;12.40;99.90;;;;;;5004365;28;20219;-81
2022/01/01 02:02:32;;;;;;;176.03;162.23;;;12.40;99.90;;;;;;5021473;28;20186;-81
2022/01/01 02:04:59;;;;;;;177.90;163.53;;;12.40;99.90;;;;;;5002980;28;20255;-82
2022/01/01 02:07:25;;;;;;;180.80;165.93;;;12.40;99.90;;;;;;4987911;28;20770;-81
2022/01/01 02:09:51;;;;;;;182.70;166.93;;;12.40;99.90;;;;;;4987095;28;20554;-81
2022/01/01 02:12:17;;;;;;;178.40;163.07;;;12.30;99.90;;;;;;4989431;28;20202;-81
2022/01/01 02:17:23;;;;;;;176.07;161.20;;;12.40;99.90;;;;;;5006925;28;20203;-79
2022/01/01 02:19:56;;;;;;;168.27;153.80;;;12.40;99.90;;;;;;5010913;28;20619;-81
2022/01/01 02:22:22;;;;;;;167.43;154.07;;;12.50;99.90;;;;;;5023552;28;20196;-82
2022/01/01 02:24:48;;;;;;;163.17;149.27;;;12.40;99.90;;;;;;5005922;28;20730;-81
2022/01/01 02:27:14;;;;;;;166.67;153.60;;;12.50;99.90;;;;;;5005243;28;20209;-81
2022/01/01 02:29:40;;;;;;;169.20;155.03;;;12.50;99.90;;;;;;4975422;28;20266;-81
2022/01/01 02:32:09;;;;;;;165.93;153.33;;;12.50;99.90;;;;;;5021790;28;20235;-80
2022/01/01 02:34:35;;;;;;;166.07;152.63;;;12.50;99.90;;;;;;5005080;28;20191;-78
2022/01/01 02:37:01;;;;;;;160.57;147.93;;;12.50;99.90;;;;;;5002066;28;20213;-81
2022/01/01 02:39:27;;;;;;;161.17;148.73;;;12.50;99.90;;;;;;5004730;28;20186;-81
2022/01/01 02:41:54;;;;;;;163.10;150.03;;;12.50;99.90;;;;;;4987611;28;20208;-79
2022/01/01 02:44:22;;;;;;;160.67;147.93;;;12.50;99.90;;;;;;5006362;28;20576;-81
2022/01/01 02:46:47;;;;;;;166.37;153.10;;;12.50;99.90;;;;;;5022843;28;20208;-83
2022/01/01 02:49:13;;;;;;;160.10;147.73;;;12.50;99.90;;;;;;5006560;28;20193;-81
2022/01/01 02:51:39;;;;;;;157.80;145.70;;;12.50;99.90;;;;;;5006430;28;20200;-80
2022/01/01 02:54:04;;;;;;;158.13;146.13;;;12.50;99.90;;;;;;4997953;28;20209;-82
2022/01/01 02:56:30;;;;;;;159.43;147.70;;;12.50;99.90;;;;;;5021145;28;20663;-82
2022/01/01 02:58:56;;;;;;;152.47;141.37;;;12.50;99.90;;;;;;5005942;28;20260;-79
2022/01/01 03:01:22;;;;;;;155.80;143.77;;;12.50;99.90;;;;;;4987709;28;20387;-81
2022/01/01 03:03:48;;;;;;;155.40;144.07;;;12.50;99.90;;;;;;4991488;28;20256;-80
2022/01/01 03:06:19;;;;;;;153.07;141.57;;;12.50;99.90;;;;;;5004236;28;20206;-80
2022/01/01 03:08:47;;;;;;;152.53;141.37;;;12.50;99.90;;;;;;4989414;28;20618;-81
2022/01/01 03:11:13;;;;;;;156.10;143.93;;;12.50;99.90;;;;;;5004159;28;20194;-80
2022/01/01 03:13:39;;;;;;;151.07;140.33;;;12.50;99.90;;;;;;4987105;28;20231;-80
2022/01/01 03:16:04;;;;;;;152.77;141.57;;;12.50;99.90;;;;;;5018968;28;20230;-80
2022/01/01 03:18:30;;;;;;;156.17;144.10;;;12.50;99.90;;;;;;4987305;28;20347;-80
2022/01/01 03:20:55;;;;;;;156.63;145.03;;;12.50;99.90;;;;;;4988221;28;20200;-79
2022/01/01 03:23:21;;;;;;;154.73;143.83;;;12.50;99.90;;;;;;4991133;28;20207;-80
2022/01/01 03:25:47;;;;;;;158.13;145.87;;;12.50;99.90;;;;;;5004477;28;20213;-80
2022/01/01 03:28:12;;;;;;;157.27;144.80;;;12.50;99.90;;;;;;4986428;28;20204;-79
2022/01/01 03:30:38;;;;;;;154.57;143.63;;;12.50;99.90;;;;;;5002850;28;20197;-79
2022/01/01 03:33:05;;;;;;;154.67;142.97;;;12.40;99.90;;;;;;4973501;28;20665;-79
2022/01/01 03:35:30;;;;;;;157.87;146.30;;;12.40;99.90;;;;;;4987034;28;20212;-81
2022/01/01 03:37:56;;;;;;;159.10;147.60;;;12.40;99.90;;;;;;5019809;28;20200;-80
2022/01/01 03:40:22;;;;;;;168.17;156.17;;;12.40;99.90;;;;;;5003485;28;20760;-80
2022/01/01 03:42:47;;;;;;;168.27;157.07;;;12.30;99.90;;;;;;4987838;28;20215;-80
2022/01/01 03:45:13;;;;;;;173.37;161.03;;;12.20;99.90;;;;;;4974836;28;20283;-80
2022/01/01 03:47:39;;;;;;;182.53;169.37;;;12.10;99.90;;;;;;5004109;28;20216;-80
2022/01/01 03:50:05;;;;;;;185.67;173.30;;;12.00;99.90;;;;;;4990667;28;20288;-81
2022/01/01 03:52:31;;;;;;;187.67;175.80;;;12.00;99.90;;;;;;5021349;28;20623;-81
2022/01/01 03:54:56;;;;;;;193.10;179.80;;;11.90;99.90;;;;;;4987444;28;20184;-81
2022/01/01 03:57:22;;;;;;;189.33;176.57;;;11.90;99.90;;;;;;4973318;28;20212;-81
2022/01/01 03:59:48;;;;;;;192.17;178.43;;;11.90;99.90;;;;;;5022363;28;20199;-81
2022/01/01 04:02:14;;;;;;;189.83;176.17;;;11.90;99.90;;;;;;4988484;28;20214;-80
2022/01/01 04:04:40;;;;;;;190.77;177.63;;;11.90;99.90;;;;;;4971404;28;20536;-80
2022/01/01 04:07:08;;;;;;;189.70;177.00;;;11.90;99.90;;;;;;5010112;28;20215;-79
2022/01/01 04:09:34;;;;;;;181.17;169.17;;;11.80;99.90;;;;;;4987750;28;20188;-79
2022/01/01 04:11:59;;;;;;;174.70;162.23;;;11.80;99.90;;;;;;5006071;28;20249;-79
2022/01/01 04:14:25;;;;;;;169.07;156.70;;;11.80;99.90;;;;;;4972084;28;20209;-81
2022/01/01 04:16:52;;;;;;;164.60;152.57;;;11.90;99.90;;;;;;4986852;28;20218;-80
2022/01/01 04:19:18;;;;;;;160.40;149.13;;;11.90;99.90;;;;;;4973308;28;20194;-80
2022/01/01 04:21:44;;;;;;;155.73;144.73;;;12.00;99.90;;;;;;4979272;28;20199;-80
2022/01/01 04:24:10;;;;;;;152.63;142.57;;;12.10;99.90;;;;;;4971368;28;20200;-80
2022/01/01 04:26:35;;;;;;;155.80;145.17;;;12.10;99.90;;;;;;5004589;28;20313;-79
2022/01/01 04:29:01;;;;;;;153.53;143.40;;;12.10;99.90;;;;;;4985078;28;21052;-79
2022/01/01 04:31:27;;;;;;;155.10;144.53;;;12.20;99.90;;;;;;4970676;28;20226;-80
2022/01/01 04:33:52;;;;;;;158.70;147.90;;;12.10;99.90;;;;;;5001684;28;20195;-81
2022/01/01 04:36:18;;;;;;;157.80;147.23;;;12.10;99.90;;;;;;4987998;28;20193;-80
2022/01/01 04:38:45;;;;;;;156.67;146.77;;;12.10;99.90;;;;;;4985677;28;20281;-80
2022/01/01 04:41:16;;;;;;;154.47;144.60;;;12.00;99.90;;;;;;4969595;28;20196;-79
2022/01/01 04:43:43;;;;;;;156.33;146.03;;;12.00;99.90;;;;;;5018172;28;20530;-81
2022/01/01 04:46:12;;;;;;;158.10;147.37;;;12.00;99.90;;;;;;5005353;28;20760;-80
2022/01/01 04:48:40;;;;;;;161.30;150.77;;;12.00;99.90;;;;;;5006895;28;20193;-80
2022/01/01 04:51:11;;;;;;;160.37;150.50;;;12.00;99.90;;;;;;5023534;28;20193;-80
2022/01/01 04:53:43;;;;;;;156.73;146.47;;;11.90;99.90;;;;;;5006857;28;20197;-80
2022/01/01 04:56:11;;;;;;;151.33;141.80;;;11.90;99.90;;;;;;4980972;28;20222;-80
2022/01/01 04:58:36;;;;;;;147.70;138.17;;;11.90;99.90;;;;;;5007246;28;20271;-80
2022/01/01 05:01:03;;;;;;;146.30;136.30;;;12.00;99.90;;;;;;5007484;28;20200;-80
2022/01/01 05:03:28;;;;;;;140.30;131.53;;;12.00;99.90;;;;;;5005744;28;20661;-80
2022/01/01 05:05:54;;;;;;;138.13;129.60;;;12.10;99.90;;;;;;4990084;28;20225;-81
2022/01/01 05:08:20;;;;;;;137.63;128.50;;;12.20;99.90;;;;;;4990197;28;20279;-80
2022/01/01 05:10:45;;;;;;;134.73;126.17;;;12.20;99.90;;;;;;4971240;28;20610;-80
2022/01/01 05:13:13;;;;;;;128.57;120.50;;;12.20;99.90;;;;;;4989510;28;20208;-80
2022/01/01 05:15:39;;;;;;;130.87;122.77;;;12.20;99.90;;;;;;4990614;28;20329;-81
2022/01/01 05:18:04;;;;;;;130.30;121.50;;;12.30;99.90;;;;;;5022199;28;20192;-80
2022/01/01 05:20:30;;;;;;;127.67;120.17;;;12.30;99.90;;;;;;4990400;28;20196;-80
2022/01/01 05:22:55;;;;;;;123.17;115.63;;;12.30;99.90;;;;;;4990203;28;20192;-81
2022/01/01 05:25:21;;;;;;;123.20;115.70;;;12.30;99.90;;;;;;4996559;28;20196;-81
2022/01/01 05:27:47;;;;;;;121.07;113.67;;;12.30;99.90;;;;;;5005664;28;20207;-81
2022/01/01 05:30:13;;;;;;;128.57;120.63;;;12.30;99.90;;;;;;4990258;28;20669;-80
2022/01/01 05:32:39;;;;;;;124.13;116.67;;;12.30;99.90;;;;;;5021992;28;20216;-80
2022/01/01 05:35:05;;;;;;;123.67;116.50;;;12.30;99.90;;;;;;5024618;28;20199;-79
2022/01/01 05:37:31;;;;;;;123.63;116.10;;;12.20;99.90;;;;;;5005534;28;20197;-80
2022/01/01 05:39:56;;;;;;;123.63;115.80;;;12.20;99.90;;;;;;4991002;28;20339;-81
2022/01/01 05:42:22;;;;;;;118.53;111.57;;;12.30;99.90;;;;;;4989618;28;20224;-81
2022/01/01 05:44:47;;;;;;;119.63;111.87;;;12.30;99.90;;;;;;4997222;28;20207;-81
2022/01/01 05:47:13;;;;;;;116.20;109.27;;;12.30;99.90;;;;;;4990313;28;20213;-80
2022/01/01 05:49:39;;;;;;;117.47;110.33;;;12.20;99.90;;;;;;4991456;28;20188;-80
2022/01/01 05:52:05;;;;;;;116.60;109.83;;;12.30;99.90;;;;;;4991436;28;20189;-81
2022/01/01 05:54:31;;;;;;;120.83;113.43;;;12.30;99.90;;;;;;4996611;28;20203;-81
2022/01/01 05:56:56;;;;;;;120.87;113.27;;;12.30;99.90;;;;;;4989700;28;20222;-80
2022/01/01 05:59:22;;;;;;;118.47;111.40;;;12.30;99.90;;;;;;5006243;28;20689;-80
2022/01/01 06:01:47;;;;;;;119.00;111.70;;;12.20;99.90;;;;;;5020417;28;20396;-80
2022/01/01 06:04:14;;;;;;;119.23;111.97;;;12.20;99.90;;;;;;5004367;28;20243;-80
2022/01/01 06:06:40;;;;;;;117.23;109.70;;;12.20;99.90;;;;;;4990414;28;20217;-80
2022/01/01 06:09:05;;;;;;;115.67;108.43;;;12.20;99.90;;;;;;5006735;28;20274;-79
2022/01/01 06:11:31;;;;;;;111.27;104.67;;;12.20;99.90;;;;;;5006388;28;20259;-80
2022/01/01 06:13:56;;;;;;;115.07;107.53;;;12.30;99.90;;;;;;5008270;28;20202;-79
2022/01/01 06:16:22;;;;;;;115.00;107.97;;;12.30;99.90;;;;;;4988844;28;20203;-79
2022/01/01 06:18:48;;;;;;;108.23;101.27;;;12.30;99.90;;;;;;4988729;28;20270;-79
2022/01/01 06:21:14;;;;;;;111.93;104.27;;;12.30;99.90;;;;;;5022570;28;20231;-79
2022/01/01 06:23:40;;;;;;;112.73;105.53;;;12.30;99.90;;;;;;5021205;28;20200;-80
2022/01/01 06:26:07;;;;;;;112.00;105.37;;;12.30;99.90;;;;;;5005494;28;20211;-80
2022/01/01 06:28:32;;;;;;;111.67;104.50;;;12.30;99.90;;;;;;5003539;28;20269;-79
2022/01/01 06:30:58;;;;;;;111.27;104.53;;;12.30;99.90;;;;;;5005334;28;20766;-81
2022/01/01 06:33:24;;;;;;;108.67;102.20;;;12.30;99.90;;;;;;5005686;28;20724;-80
2022/01/01 06:35:50;;;;;;;107.60;101.20;;;12.30;99.90;;;;;;5006879;28;20295;-80
2022/01/01 06:38:16;;;;;;;107.23;100.67;;;12.30;99.90;;;;;;4988061;28;20235;-80
2022/01/01 06:40:44;;;;;;;111.57;103.90;;;12.30;99.90;;;;;;4987662;28;20192;-80
2022/01/01 06:43:12;;;;;;;108.73;101.90;;;12.30;99.90;;;;;;5020893;28;20369;-80
2022/01/01 06:45:38;;;;;;;110.37;102.93;;;12.30;99.90;;;;;;5021039;28;20246;-81
2022/01/01 06:48:04;;;;;;;103.57;96.77;;;12.30;99.90;;;;;;4989796;28;20226;-79
2022/01/01 06:50:31;;;;;;;107.00;100.30;;;12.30;99.90;;;;;;4987999;28;20719;-80
2022/01/01 06:52:57;;;;;;;105.57;99.13;;;12.30;99.90;;;;;;4989388;28;20189;-81
2022/01/01 06:55:23;;;;;;;102.57;95.80;;;12.30;99.90;;;;;;4989023;28;20224;-79
2022/01/01 06:57:49;;;;;;;105.47;98.43;;;12.20;99.90;;;;;;5004923;28;20224;-81
2022/01/01 07:00:15;;;;;;;103.87;97.20;;;12.20;99.90;;;;;;4972074;28;20192;-79
2022/01/01 07:02:43;;;;;;;103.93;97.33;;;12.20;99.90;;;;;;5003713;28;20188;-81
2022/01/01 07:05:09;;;;;;;105.47;97.97;;;12.10;99.90;;;;;;5022470;28;20243;-81
2022/01/01 07:07:35;;;;;;;101.93;95.23;;;12.10;99.90;;;;;;4989378;28;20567;-81
2022/01/01 07:10:02;;;;;;;99.80;93.13;;;12.10;99.90;;;;;;4986437;28;20744;-82
2022/01/01 07:12:28;;;;;;;101.23;94.53;;;12.10;99.90;;;;;;5005666;28;20212;-82
2022/01/01 07:14:54;;;;;;;102.63;95.97;;;12.10;99.90;;;;;;4990871;28;20197;-80
2022/01/01 07:17:20;;;;;;;98.37;91.80;;;12.10;99.90;;;;;;5005725;28;20192;-80
2022/01/01 07:19:45;;;;;;;101.57;94.33;;;12.10;99.90;;;;;;5021160;28;20662;-81
2022/01/01 07:22:11;;;;;;;96.93;90.60;;;12.10;99.90;;;;;;4987515;28;20197;-80
2022/01/01 07:24:36;;;;;;;99.27;92.57;;;12.10;99.90;;;;;;4996006;28;20189;-80
2022/01/01 07:27:02;;;;;;;96.90;90.57;;;12.10;99.90;;;;;;5004375;28;20310;-79
2022/01/01 07:29:28;;;;;;;98.20;92.10;;;12.10;99.90;;;;;;4989290;28;20189;-80
2022/01/01 07:31:54;;;;;;;95.23;88.73;;;12.10;99.90;;;;;;4988758;28;20279;-81
2022/01/01 07:34:20;;;;;;;97.33;90.70;;;12.10;99.90;;;;;;4989004;28;20190;-79
2022/01/01 07:36:46;;;;;;;96.37;89.73;;;12.10;99.90;;;;;;4987769;28;20276;-80
2022/01/01 07:39:12;;;;;;;97.10;90.47;;;12.10;99.90;;;;;;5022041;28;20223;-80
2022/01/01 07:41:39;;;;;;;94.97;88.43;;;12.10;99.90;;;;;;5004954;28;21051;-81
2022/01/01 07:44:05;;;;;;;96.43;90.10;;;12.10;99.90;;;;;;4987455;28;20237;-81
2022/01/01 07:46:31;;;;;;;95.63;89.77;;;12.10;99.90;;;;;;4987179;28;20219;-80
2022/01/01 07:48:57;;;;;;;95.13;88.97;;;12.10;99.90;;;;;;5003380;28;20204;-81
2022/01/01 07:51:24;;;;;;;95.70;89.20;;;12.10;99.90;;;;;;5023446;28;20193;-80
2022/01/01 07:53:50;;;;;;;94.70;88.50;;;12.10;99.90;;;;;;5004712;28;20185;-80
2022/01/01 07:56:15;;;;;;;93.90;87.90;;;12.10;99.90;;;;;;5005863;28;20219;-80
2022/01/01 07:58:41;;;;;;;93.90;87.87;;;12.10;99.90;;;;;;5004762;28;20213;-81
2022/01/01 08:01:07;;;;;;;93.37;86.53;;;12.10;99.90;;;;;;4971854;28;20676;-80
2022/01/01 08:03:32;;;;;;;93.93;87.37;;;12.10;99.90;;;;;;5004160;28;20188;-81
2022/01/01 08:05:58;;;;;;;96.73;89.83;;;12.10;99.90;;;;;;4982977;28;20264;-80
2022/01/01 08:08:24;;;;;;;96.77;90.17;;;12.10;99.90;;;;;;4983850;28;20613;-81
2022/01/01 08:10:50;;;;;;;96.13;89.90;;;12.20;99.90;;;;;;5001384;28;20207;-81
2022/01/01 08:13:23;;;;;;;96.57;89.80;;;12.20;99.90;;;;;;4984835;28;20212;-82
2022/01/01 08:15:50;;;;;;;96.57;90.17;;;12.20;99.90;;;;;;5001594;28;20218;-80
2022/01/01 08:18:16;;;;;;;99.63;93.33;;;12.30;99.90;;;;;;5007377;28;20258;-80
2022/01/01 08:20:42;;;;;;;101.90;95.43;;;12.30;99.90;;;;;;5000035;28;20622;-79
2022/01/01 08:23:09;;;;;;;98.73;92.70;;;12.40;99.90;;;;;;4988343;28;20189;-79
2022/01/01 08:25:35;;;;;;;96.17;89.73;;;12.50;99.90;;;;;;5004845;28;20279;-81
2022/01/01 08:28:02;;;;;;;100.67;94.23;;;12.50;99.90;;;;;;5004235;28;20292;-80
2022/01/01 08:30:28;;;;;;;101.57;95.03;;;12.50;99.90;;;;;;5003314;28;20342;-81
2022/01/01 08:33:01;;;;;;;101.57;95.23;;;12.40;99.90;;;;;;5005239;28;20266;-79
2022/01/01 08:35:30;;;;;;;99.97;93.33;;;12.40;99.90;;;;;;4999540;28;20200;-81
2022/01/01 08:37:56;;;;;;;100.03;93.07;;;12.30;99.90;;;;;;4986558;28;20650;-80
2022/01/01 08:40:23;;;;;;;98.33;91.83;;;12.30;99.90;;;;;;4986305;28;20230;-78
2022/01/01 08:42:49;;;;;;;96.27;89.97;;;12.20;99.90;;;;;;5003067;28;20209;-80
2022/01/01 08:45:15;;;;;;;97.47;91.30;;;12.20;99.90;;;;;;5004892;28;20528;-80
2022/01/01 08:47:41;;;;;;;94.17;88.17;;;12.10;99.90;;;;;;5003386;28;20232;-80
2022/01/01 08:50:07;;;;;;;96.70;90.20;;;12.10;99.90;;;;;;4973114;28;20186;-81
2022/01/01 08:52:33;;;;;;;100.47;93.60;;;12.00;99.90;;;;;;5002641;28;20332;-80
2022/01/01 08:54:59;;;;;;;96.67;90.40;;;12.00;99.90;;;;;;4985751;28;20323;-80
2022/01/01 08:57:26;;;;;;;102.43;95.43;;;12.10;99.90;;;;;;4987077;28;20685;-80
2022/01/01 08:59:53;;;;;;;99.77;92.97;;;12.00;99.90;;;;;;4987673;28;20689;-79
2022/01/01 09:02:18;;;;;;;97.90;91.07;;;12.00;99.90;;;;;;5003583;28;20189;-81
2022/01/01 09:04:44;;;;;;;97.57;90.87;;;12.00;99.90;;;;;;5002642;28;20260;-80
2022/01/01 09:07:10;;;;;;;100.80;94.10;;;12.00;99.90;;;;;;5003044;28;20682;-79
2022/01/01 09:09:37;;;;;;;100.57;93.43;;;12.00;99.90;;;;;;5001334;28;20280;-79
2022/01/01 09:12:03;;;;;;;101.93;94.43;;;11.90;99.90;;;;;;5002708;28;20781;-80
2022/01/01 09:14:29;;;;;;;102.60;95.07;;;11.90;99.90;;;;;;4993459;28;20283;-81
2022/01/01 09:16:55;;;;;;;106.23;98.00;;;11.80;99.90;;;;;;4986337;28;20331;-82
2022/01/01 09:19:20;;;;;;;106.33;98.00;;;11.70;99.90;;;;;;5017664;28;20201;-81
2022/01/01 09:21:46;;;;;;;105.87;98.13;;;11.60;99.90;;;;;;5003998;28;20203;-81
2022/01/01 09:24:12;;;;;;;111.20;102.27;;;11.50;99.90;;;;;;4987010;28;20657;-80
2022/01/01 09:26:37;;;;;;;111.27;102.57;;;11.50;99.90;;;;;;4987193;28;20221;-78
2022/01/01 09:29:04;;;;;;;107.37;98.87;;;11.50;99.90;;;;;;4970101;28;20212;-81
2022/01/01 09:31:30;;;;;;;106.07;97.87;;;11.50;99.90;;;;;;5008924;28;20673;-80
2022/01/01 09:33:56;;;;;;;108.63;100.10;;;11.50;99.90;;;;;;4986169;28;20259;-80
2022/01/01 09:36:21;;;;;;;109.57;100.97;;;11.60;99.90;;;;;;4972314;28;20219;-81
2022/01/01 09:38:49;;;;;;;106.73;98.77;;;11.60;99.90;;;;;;4987266;28;20304;-79
2022/01/01 09:41:15;;;;;;;104.80;96.73;;;11.60;99.90;;;;;;4993944;28;20271;-80
2022/01/01 09:43:41;;;;;;;104.27;96.20;;;11.60;99.90;;;;;;5002470;28;20297;-79
2022/01/01 09:46:11;;;;;;;103.70;94.90;;;11.70;99.90;;;;;;4989976;28;20218;-81
2022/01/01 09:48:38;;;;;;;101.63;93.20;;;11.80;99.90;;;;;;5002657;28;20252;-80
2022/01/01 09:51:04;;;;;;;100.40;92.43;;;11.80;99.90;;;;;;5003152;28;20527;-79
2022/01/01 09:53:31;;;;;;;103.80;95.30;;;11.90;99.90;;;;;;4986557;28;20663;-81
2022/01/01 09:55:58;;;;;;;102.53;94.27;;;11.90;99.90;;;;;;4987671;28;20191;-81
2022/01/01 09:58:26;;;;;;;101.00;93.13;;;11.90;99.90;;;;;;5006289;28;20210;-79
2022/01/01 10:00:53;;;;;;;105.23;97.13;;;11.90;99.90;;;;;;5002807;28;20631;-80
2022/01/01 10:03:45;;;;;;;107.07;98.60;;;11.90;99.90;;;;;;5001298;28;20279;-79
2022/01/01 10:06:18;;;;;;;105.27;96.87;;;11.90;99.90;;;;;;4998490;28;20274;-81
2022/01/01 10:09:03;;;;;;;105.50;96.07;;;11.90;99.90;;;;;;5003117;28;20942;-80
2022/01/01 10:11:30;;;;;;;101.63;93.17;;;12.00;99.90;;;;;;5004519;28;20625;-80
2022/01/01 10:13:56;;;;;;;102.70;94.17;;;12.00;99.90;;;;;;5002349;28;20214;-81
2022/01/01 10:16:22;;;;;;;100.83;92.43;;;12.10;99.90;;;;;;5004551;28;20239;-81
2022/01/01 10:18:53;;;;;;;95.10;87.17;;;12.20;99.90;;;;;;5004958;28;20214;-81
2022/01/01 10:21:27;;;;;;;94.97;86.90;;;12.30;99.90;;;;;;5004362;28;20630;-81
2022/01/01 10:23:55;;;;;;;94.73;87.23;;;12.40;99.90;;;;;;4988315;28;20194;-81
2022/01/01 10:29:30;;;;;;;95.13;87.50;;;12.50;99.90;;;;;;5008254;28;20255;-80
2022/01/01 10:32:07;;;;;;;92.93;85.17;;;12.50;99.90;;;;;;5006543;28;20188;-80
2022/01/01 10:34:35;;;;;;;87.10;79.87;;;12.60;99.90;;;;;;5005480;28;20186;-80
2022/01/01 10:37:05;;;;;;;84.47;77.83;;;12.70;99.90;;;;;;5017480;28;20639;-80
2022/01/01 10:39:31;;;;;;;80.10;73.87;;;12.90;99.90;;;;;;5004971;28;20195;-80
2022/01/01 10:41:59;;;;;;;82.40;75.53;;;13.00;99.90;;;;;;5000686;28;20262;-82
2022/01/01 10:44:33;;;;;;;78.87;72.53;;;13.10;99.90;;;;;;5003113;28;20190;-81
2022/01/01 10:47:04;;;;;;;75.90;69.57;;;13.10;99.90;;;;;;5009257;28;20212;-80
2022/01/01 10:50:03;;;;;;;77.73;71.40;;;13.20;99.90;;;;;;5008294;28;20630;-80
2022/01/01 10:52:32;;;;;;;77.57;71.10;;;13.20;99.90;;;;;;5005813;28;21058;-81
2022/01/01 10:55:06;;;;;;;78.43;72.17;;;13.10;99.90;;;;;;5004094;28;20973;-80
2022/01/01 10:57:34;;;;;;;79.17;72.13;;;13.10;99.90;;;;;;5003790;28;20812;-80
2022/01/01 11:00:20;;;;;;;72.47;67.03;;;13.10;99.90;;;;;;5003639;28;20287;-81
2022/01/01 11:02:55;;;;;;;70.10;64.10;;;13.10;99.90;;;;;;5001188;28;20191;-80
2022/01/01 11:05:32;;;;;;;67.87;61.93;;;13.20;99.90;;;;;;5002715;28;20238;-79
2022/01/01 11:07:58;;;;;;;67.20;61.50;;;13.30;99.90;;;;;;5004364;28;20214;-81
2022/01/01 11:10:26;;;;;;;64.17;58.70;;;13.40;99.90;;;;;;4989443;28;20195;-81
2022/01/01 11:12:53;;;;;;;63.13;57.93;;;13.50;99.90;;;;;;5020589;28;20255;-82
2022/01/01 11:15:20;;;;;;;64.67;59.47;;;13.50;99.90;;;;;;5006502;28;20195;-81
2022/01/01 11:17:47;;;;;;;61.33;56.53;;;13.60;99.90;;;;;;5003518;28;20256;-80
2022/01/01 11:20:14;;;;;;;60.93;55.77;;;13.60;99.90;;;;;;5011461;28;20191;-81
2022/01/01 11:22:42;;;;;;;58.37;53.37;;;13.60;99.90;;;;;;5003808;28;20279;-81
2022/01/01 11:25:08;;;;;;;56.23;51.87;;;13.50;99.90;;;;;;5003027;28;20259;-81
2022/01/01 11:27:33;;;;;;;56.77;52.23;;;13.40;99.90;;;;;;5010478;28;20219;-81
2022/01/01 11:30:04;;;;;;;55.17;50.83;;;13.40;99.90;;;;;;4972786;28;20197;-82
2022/01/01 11:33:15;;;;;;;55.93;51.67;;;13.30;99.90;;;;;;5021873;28;20194;-81
2022/01/01 11:35:44;;;;;;;55.37;51.13;;;13.20;99.90;;;;;;4981382;28;20230;-80
2022/01/01 11:38:12;;;;;;;53.47;49.47;;;13.20;99.90;;;;;;5012417;28;20199;-80
2022/01/01 11:40:54;;;;;;;53.27;48.97;;;13.20;99.90;;;;;;5018932;28;20186;-79
2022/01/01 11:43:48;;;;;;;51.50;47.40;;;13.20;99.90;;;;;;5019449;28;20205;-81
2022/01/01 11:46:23;;;;;;;49.43;45.70;;;13.20;99.90;;;;;;5002548;28;20555;-80
2022/01/01 11:48:49;;;;;;;50.07;46.07;;;13.30;99.90;;;;;;5007586;28;20254;-81
2022/01/01 11:51:21;;;;;;;48.97;45.37;;;13.40;99.90;;;;;;4999948;28;20617;-81
2022/01/01 11:54:16;;;;;;;49.23;45.63;;;13.40;99.90;;;;;;5000351;28;20260;-81
2022/01/01 11:56:56;;;;;;;48.30;44.80;;;13.40;99.90;;;;;;5000058;28;20881;-80
2022/01/01 11:59:23;;;;;;;47.67;44.47;;;13.40;99.90;;;;;;5004914;28;20190;-80
2022/01/01 12:01:51;;;;;;;48.53;45.10;;;13.40;99.90;;;;;;5007279;28;20605;-80
2022/01/01 12:04:27;;;;;;;47.27;43.87;;;13.40;99.90;;;;;;5024378;28;20353;-81
2022/01/01 12:07:11;;;;;;;45.33;42.23;;;13.40;99.90;;;;;;5008190;28;20219;-82
2022/01/01 12:10:11;;;;;;;43.13;40.37;;;13.50;99.90;;;;;;4995128;28;20225;-81
2022/01/01 12:12:51;;;;;;;42.77;39.93;;;13.50;99.90;;;;;;5024585;28;20190;-80
2022/01/01 12:15:35;;;;;;;41.13;38.33;;;13.60;99.90;;;;;;5027122;28;20537;-79
2022/01/01 12:18:13;;;;;;;40.13;37.07;;;13.60;99.90;;;;;;5027547;28;20224;-82
2022/01/01 12:20:45;;;;;;;38.27;35.53;;;13.60;99.90;;;;;;5027337;28;20198;-81
2022/01/01 12:23:22;;;;;;;37.80;35.23;;;13.70;99.90;;;;;;5010360;28;20190;-82